createdAt,value
2023-04-02T05:38:51.820Z,7.28
2023-04-02T05:41:18.247Z,7.30
2023-04-02T05:43:44.630Z,7.30
2023-04-02T05:46:11.039Z,7.31
2023-04-02T05:48:37.700Z,7.51
2023-04-02T05:51:04.132Z,7.74
2023-04-02T05:53:30.518Z,7.54
2023-04-02T05:55:59.375Z,7.48
2023-04-02T06:00:55.414Z,7.47
2023-04-02T06:03:21.950Z,7.47
2023-04-02T06:05:49.811Z,7.67
2023-04-02T06:08:16.145Z,7.57
2023-04-02T06:10:42.473Z,7.57
2023-04-02T06:13:09.183Z,7.70
2023-04-02T06:15:38.863Z,7.66
2023-04-02T06:18:05.412Z,7.70
2023-04-02T06:20:31.925Z,7.68
2023-04-02T06:22:58.322Z,7.78
2023-04-02T06:25:24.645Z,7.86
2023-04-02T06:27:53.694Z,7.90
2023-04-02T06:30:22.511Z,7.98
2023-04-02T06:32:49.195Z,7.98
2023-04-02T06:35:15.602Z,7.97
2023-04-02T06:37:41.998Z,8.15
2023-04-02T06:40:09.237Z,8.05
2023-04-02T06:42:35.717Z,7.99
2023-04-02T06:45:03.836Z,8.02
2023-04-02T06:47:30.222Z,8.13
2023-04-02T06:49:56.688Z,7.99
2023-04-02T06:52:23.114Z,7.87
2023-04-02T06:54:49.558Z,7.99
2023-04-02T06:57:16.139Z,8.04
2023-04-02T06:59:42.709Z,8.23
2023-04-02T07:02:09.105Z,8.31
2023-04-02T07:04:37.913Z,8.29
2023-04-02T07:09:45.629Z,8.53
2023-04-02T07:12:12.505Z,8.62
2023-04-02T07:14:38.878Z,8.68
2023-04-02T07:17:07.380Z,8.77
2023-04-02T07:19:33.756Z,8.85
2023-04-02T07:22:01.224Z,8.94
2023-04-02T07:24:27.654Z,9.00
2023-04-02T07:26:54.170Z,9.08
2023-04-02T07:29:20.637Z,9.12
2023-04-02T07:31:47.344Z,9.30
2023-04-02T07:34:15.952Z,9.19
2023-04-02T07:36:42.381Z,9.19
2023-04-02T07:39:08.776Z,9.20
2023-04-02T07:41:35.339Z,9.17
2023-04-02T07:44:01.819Z,9.13
2023-04-02T07:46:28.297Z,9.07
2023-04-02T07:48:54.678Z,9.10
2023-04-02T07:51:21.062Z,9.11
2023-04-02T07:53:47.503Z,9.15
2023-04-02T07:56:13.906Z,9.22
2023-04-02T07:58:40.394Z,9.27
2023-04-02T08:01:06.867Z,9.31
2023-04-02T08:03:33.716Z,9.47
2023-04-02T08:06:00.404Z,9.69
2023-04-02T08:08:29.068Z,9.93
2023-04-02T08:21:38.333Z,10.27
2023-04-02T08:24:05.233Z,10.11
2023-04-02T08:26:31.842Z,10.01
2023-04-02T08:28:58.372Z,10.08
2023-04-02T08:31:25.238Z,9.96
2023-04-02T08:33:51.785Z,9.98
2023-04-02T08:36:23.588Z,9.85
2023-04-02T08:38:50.055Z,10.17
2023-04-02T08:41:16.672Z,10.43
2023-04-02T08:43:43.236Z,10.61
2023-04-02T08:46:09.837Z,10.61
2023-04-02T08:48:36.282Z,10.64
2023-04-02T08:51:02.706Z,10.76
2023-04-02T08:53:29.143Z,11.00
2023-04-02T08:55:55.518Z,10.98
2023-04-02T08:58:24.230Z,10.78
2023-04-02T09:00:50.637Z,11.03
2023-04-02T09:03:18.151Z,11.24
2023-04-02T13:19:43.326Z,11.26
2023-04-02T13:22:09.957Z,10.99
2023-04-02T13:24:36.525Z,11.42
2023-04-02T13:27:03.028Z,11.44
2023-04-02T13:29:29.410Z,11.53
2023-04-02T13:31:55.928Z,11.61
2023-04-02T13:34:23.458Z,11.72
2023-04-02T13:36:49.822Z,11.74
2023-04-02T13:41:56.464Z,11.81
2023-04-02T13:44:22.920Z,11.49
2023-04-02T13:46:49.552Z,11.43
2023-04-02T13:49:16.013Z,11.61
2023-04-02T13:51:42.552Z,11.54
2023-04-02T13:54:09.040Z,11.41
2023-04-02T13:56:35.526Z,11.38
2023-04-02T13:59:01.987Z,11.23
2023-04-02T14:01:28.364Z,11.20
2023-04-02T14:03:54.860Z,11.24
2023-04-02T14:06:22.415Z,10.97
2023-04-02T14:08:48.834Z,11.09
2023-04-02T14:11:15.424Z,11.12
2023-04-02T14:13:41.918Z,10.98
2023-04-02T14:16:10.578Z,10.81
2023-04-02T14:18:37.021Z,10.73
2023-04-02T14:21:03.427Z,10.64
2023-04-02T14:23:29.929Z,10.65
2023-04-02T14:25:56.545Z,10.90
2023-04-02T14:28:22.907Z,10.83
2023-04-02T14:30:49.288Z,11.05
2023-04-02T14:33:15.890Z,11.19
2023-04-02T14:35:42.492Z,11.20
2023-04-02T14:38:08.913Z,11.29
2023-04-02T14:40:35.520Z,11.19
2023-04-02T14:43:02.084Z,11.24
2023-04-02T14:45:28.639Z,11.26
2023-04-02T14:47:55.166Z,11.45
2023-04-02T14:50:21.645Z,11.64
2023-04-02T14:52:48.143Z,11.40
2023-04-02T14:55:14.505Z,11.49
2023-04-02T14:57:40.912Z,11.37
2023-04-02T15:00:07.407Z,11.64
2023-04-02T15:02:33.891Z,11.64
2023-04-02T15:05:01.548Z,11.71
2023-04-02T15:07:28.351Z,11.76
2023-04-02T15:09:55.555Z,11.80
2023-04-02T15:12:22.124Z,11.82
2023-04-02T15:14:50.153Z,11.75
2023-04-02T15:17:16.952Z,11.80
2023-04-02T15:19:43.408Z,11.88
2023-04-02T15:22:10.043Z,11.86
2023-04-02T15:24:36.624Z,11.70
2023-04-02T15:27:05.365Z,11.66
2023-04-02T15:29:35.843Z,11.57
2023-04-02T15:32:02.313Z,11.56
2023-04-02T15:34:28.782Z,11.76
2023-04-02T15:36:55.888Z,11.80
2023-04-02T15:39:22.328Z,11.85
2023-04-02T15:41:49.749Z,11.58
2023-04-02T15:44:16.579Z,11.47
2023-04-02T15:46:43.226Z,11.56
2023-04-02T15:49:10.080Z,11.63
2023-04-02T15:51:36.506Z,11.89
2023-04-02T15:54:04.219Z,11.80
2023-04-02T15:56:30.718Z,11.73
2023-04-02T15:58:57.273Z,11.66
2023-04-02T16:01:23.934Z,11.67
2023-04-02T16:03:51.242Z,11.70
2023-04-02T16:06:18.030Z,11.62
2023-04-02T16:08:44.415Z,11.60
2023-04-02T16:11:10.849Z,11.56
2023-04-02T16:13:41.542Z,11.53
2023-04-02T16:16:09.012Z,11.48
2023-04-02T16:18:35.720Z,11.24
2023-04-02T16:21:02.183Z,10.70
2023-04-02T16:23:29.147Z,10.27
2023-04-02T16:25:57.783Z,10.13
2023-04-02T16:28:24.336Z,10.21
2023-04-02T16:30:51.390Z,10.26
2023-04-02T16:33:17.763Z,10.30
2023-04-02T16:35:44.660Z,10.54
2023-04-02T16:38:12.115Z,10.67
2023-04-02T16:40:39.233Z,10.43
2023-04-02T16:43:05.567Z,10.55
2023-04-02T16:45:32.073Z,10.49
2023-04-02T16:47:58.717Z,10.57
2023-04-02T16:50:25.948Z,10.54
2023-04-02T16:52:53.192Z,10.69
2023-04-02T16:55:19.910Z,10.96
2023-04-02T16:57:46.628Z,10.98
2023-04-02T17:00:13.031Z,10.80
2023-04-02T17:02:39.641Z,10.78
2023-04-02T17:05:08.535Z,10.68
2023-04-02T17:07:35.354Z,10.55
2023-04-02T17:10:02.383Z,10.71
2023-04-02T17:12:28.869Z,10.52
2023-04-02T17:14:55.445Z,10.52
2023-04-02T17:17:21.972Z,10.52
2023-04-02T17:20:04.897Z,10.62
2023-04-02T17:22:32.003Z,10.54
2023-04-02T17:24:58.928Z,10.47
2023-04-02T17:27:26.472Z,10.50
2023-04-02T17:29:58.421Z,10.47
2023-04-02T17:32:25.185Z,10.51
2023-04-02T17:34:54.802Z,10.48
2023-04-02T17:37:21.333Z,10.44
2023-04-02T17:39:48.108Z,10.40
2023-04-02T17:42:14.616Z,10.27
2023-04-02T17:44:40.966Z,10.26
2023-04-02T17:47:08.994Z,10.27
2023-04-02T17:49:35.685Z,10.26
2023-04-02T17:52:02.270Z,10.34
2023-04-02T17:54:29.041Z,10.17
2023-04-02T17:56:57.976Z,10.07
2023-04-02T17:59:24.657Z,10.06
2023-04-02T18:01:51.167Z,9.91
2023-04-02T18:04:18.167Z,9.91
2023-04-02T18:06:44.657Z,9.89
2023-04-02T18:09:11.196Z,9.84
2023-04-02T18:11:40.511Z,9.76
2023-04-02T18:14:07.277Z,9.74
2023-04-02T18:16:33.951Z,9.89
2023-04-02T18:19:01.269Z,9.94
2023-04-02T18:21:27.753Z,9.80
2023-04-02T18:23:54.256Z,9.71
2023-04-02T18:26:21.221Z,9.67
2023-04-02T18:28:49.042Z,9.64
2023-04-02T18:31:15.650Z,9.65
2023-04-02T18:33:42.535Z,9.65
2023-04-02T18:36:09.303Z,9.65
2023-04-02T18:38:35.992Z,9.64
2023-04-02T18:41:03.202Z,9.64
2023-04-02T18:43:30.805Z,9.65
2023-04-02T18:45:57.631Z,9.72
2023-04-02T18:48:24.259Z,9.70
2023-04-02T18:50:50.824Z,9.57
2023-04-02T18:53:18.212Z,9.57
2023-04-02T18:55:45.020Z,9.56
2023-04-02T18:58:12.385Z,9.63
2023-04-02T19:00:39.391Z,9.53
2023-04-02T19:03:05.855Z,9.49
2023-04-02T19:05:33.187Z,9.42
2023-04-02T19:07:59.599Z,9.36
2023-04-02T19:10:26.078Z,9.32
2023-04-02T19:12:52.752Z,9.31
2023-04-02T19:15:19.203Z,9.49
2023-04-02T19:17:45.970Z,9.52
2023-04-02T19:20:21.415Z,9.32
2023-04-02T19:22:56.380Z,9.20
2023-04-02T19:25:24.253Z,9.18
2023-04-02T19:27:52.639Z,9.17
2023-04-02T19:30:19.121Z,9.17
2023-04-02T19:32:45.659Z,9.16
2023-04-02T19:35:12.637Z,9.17
2023-04-02T19:37:39.068Z,9.17
2023-04-02T19:40:06.010Z,9.21
2023-04-02T19:42:35.120Z,9.24
2023-04-02T19:45:01.521Z,9.28
2023-04-02T19:47:30.192Z,9.29
2023-04-02T19:49:56.818Z,9.29
2023-04-02T19:52:23.495Z,9.30
2023-04-02T19:54:50.140Z,9.31
2023-04-02T19:57:16.821Z,9.33
2023-04-02T19:59:44.734Z,9.35
2023-04-02T20:02:12.312Z,9.35
2023-04-02T20:04:38.815Z,9.35
2023-04-02T20:07:05.365Z,9.36
2023-04-02T20:09:33.323Z,9.36
2023-04-02T20:12:00.125Z,9.35
2023-04-02T20:14:26.666Z,9.34
2023-04-02T20:16:53.254Z,9.35
2023-04-02T20:19:21.139Z,9.34
2023-04-02T20:21:47.638Z,9.33
2023-04-02T20:24:14.452Z,9.31
2023-04-02T20:26:42.389Z,9.29
2023-04-02T20:29:08.953Z,9.30
2023-04-02T20:31:40.121Z,9.28
2023-04-02T20:34:07.574Z,9.26
2023-04-02T20:36:35.947Z,9.22
2023-04-02T20:39:03.677Z,9.19
2023-04-02T20:41:30.857Z,9.19
2023-04-02T20:43:57.287Z,9.17
2023-04-02T20:46:23.825Z,9.20
2023-04-02T20:48:51.353Z,9.18
2023-04-02T20:53:59.394Z,9.17
2023-04-02T20:56:26.819Z,9.17
